22°C Temp
17°C Dewpoint
73% Humidity
Temperature
23 KM/H
14 MPH
12 KTS
250°
West South
West

Wind Speed
Partly Cloudy
Conditions
Pressure 1012.87 (hPa) - 29.91 (in)
Visibility 6.0 (mi) - 9.7 (km)

Current Conditions
LIRI
Location 25(km)
Metar :LIRI 211450Z 25012KT 9999 FEW030 22/17 Q1013
Tue 21st May 15:50 pm

Airport
  Metar Aviation API Data Provided by https://www.checkwx.com/ PHP scripts by weather34.com ©2024